createdAt,value
2022-12-05T00:02:31.340Z,100386.91
2022-12-05T00:07:28.828Z,100383.50
2022-12-05T00:12:25.236Z,100391.25
2022-12-05T00:17:21.660Z,100393.72
2022-12-05T00:22:18.024Z,100381.44
2022-12-05T00:27:14.437Z,100389.34
2022-12-05T00:32:10.849Z,100388.53
2022-12-05T00:37:07.296Z,100381.22
2022-12-05T00:42:03.817Z,100373.47
2022-12-05T00:47:00.306Z,100378.00
2022-12-05T00:51:56.709Z,100360.44
2022-12-05T00:56:56.157Z,100363.84
2022-12-05T01:01:52.661Z,100356.25
2022-12-05T01:06:50.681Z,100348.31
2022-12-05T01:11:48.035Z,100338.72
2022-12-05T01:16:46.564Z,100340.56
2022-12-05T01:21:43.494Z,100345.69
2022-12-05T01:26:41.521Z,100341.34
2022-12-05T01:31:38.393Z,100346.66
2022-12-05T01:36:34.974Z,100339.56
2022-12-05T01:41:34.394Z,100334.22
2022-12-05T01:46:33.815Z,100349.97
2022-12-05T01:51:32.897Z,100348.06
2022-12-05T01:56:32.706Z,100349.81
2022-12-05T02:01:29.212Z,100356.66
2022-12-05T02:06:27.191Z,100365.22
2022-12-05T02:11:26.744Z,100377.34
2022-12-05T02:16:52.902Z,100383.25
2022-12-05T02:22:05.444Z,100387.59
2022-12-05T02:27:27.185Z,100379.72
2022-12-05T02:32:39.219Z,100385.88
2022-12-05T02:38:12.001Z,100384.97
2022-12-05T02:43:16.368Z,100378.69
2022-12-05T02:48:15.847Z,100387.59
2022-12-05T02:53:15.400Z,100384.91
2022-12-05T02:58:17.205Z,100379.59
2022-12-05T03:03:18.387Z,100376.88
2022-12-05T03:08:21.540Z,100383.78
2022-12-05T03:13:25.293Z,100380.19
2022-12-05T03:18:26.517Z,100383.06
2022-12-05T03:23:31.270Z,100380.38
2022-12-05T03:28:37.734Z,100383.66
2022-12-05T03:33:42.591Z,100385.19
2022-12-05T03:39:01.672Z,100386.16
2022-12-05T03:44:07.549Z,100390.47
2022-12-05T03:49:34.763Z,100389.72
2022-12-05T03:54:37.669Z,100394.16
2022-12-05T03:59:47.325Z,100392.91
2022-12-05T04:05:09.908Z,100398.16
2022-12-05T04:10:12.501Z,100397.16
2022-12-05T04:15:14.922Z,100398.03
2022-12-05T04:20:38.819Z,100390.34
2022-12-05T04:26:09.668Z,100390.97
2022-12-05T04:31:22.873Z,100397.16
2022-12-05T04:36:24.652Z,100399.75
2022-12-05T04:41:26.289Z,100396.19
2022-12-05T04:46:24.436Z,100394.41
2022-12-05T04:51:26.685Z,100397.97
2022-12-05T04:56:29.337Z,100395.94
2022-12-05T05:01:38.430Z,100391.06
2022-12-05T05:06:38.458Z,100396.13
2022-12-05T05:11:35.624Z,100388.38
2022-12-05T05:16:37.875Z,100402.56
2022-12-05T05:21:36.643Z,100395.34
2022-12-05T05:26:40.886Z,100395.34
2022-12-05T05:31:38.611Z,100393.63
2022-12-05T05:36:35.486Z,100397.97
2022-12-05T05:41:34.793Z,100407.09
2022-12-05T05:46:35.016Z,100406.94
2022-12-05T05:51:32.187Z,100406.75
2022-12-05T05:56:29.340Z,100407.13
2022-12-05T06:01:26.625Z,100408.84
2022-12-05T06:06:23.490Z,100423.72
2022-12-05T06:11:25.746Z,100418.47
2022-12-05T06:16:24.562Z,100428.91
2022-12-05T06:21:21.904Z,100420.00
2022-12-05T06:26:20.622Z,100426.94
2022-12-05T06:31:22.197Z,100429.38
2022-12-05T06:36:21.942Z,100429.13
2022-12-05T06:41:20.477Z,100432.09
2022-12-05T06:46:17.215Z,100433.56
2022-12-05T06:51:16.054Z,100434.19
2022-12-05T06:56:16.047Z,100438.50
2022-12-05T07:01:36.079Z,100449.22
2022-12-05T07:06:34.147Z,100441.06
2022-12-05T07:11:30.753Z,100442.97
2022-12-05T07:16:27.283Z,100446.78
2022-12-05T07:21:24.114Z,100451.34
2022-12-05T07:26:23.532Z,100461.72
2022-12-05T07:31:22.580Z,100458.31
2022-12-05T07:36:22.399Z,100457.47
2022-12-05T07:41:27.406Z,100457.78
2022-12-05T07:46:25.084Z,100452.91
2022-12-05T07:51:22.336Z,100459.91
2022-12-05T07:56:19.112Z,100466.53
2022-12-05T08:01:24.547Z,100473.72
2022-12-05T08:06:24.120Z,100467.50
2022-12-05T08:11:22.985Z,100475.41
2022-12-05T08:16:20.776Z,100479.63
2022-12-05T08:21:19.306Z,100474.69
2022-12-05T08:26:20.991Z,100477.50
2022-12-05T08:31:19.103Z,100484.16
2022-12-05T08:36:15.795Z,100486.84
2022-12-05T08:41:16.456Z,100492.31
2022-12-05T08:46:13.095Z,100494.88
2022-12-05T08:51:11.464Z,100499.94
2022-12-05T08:56:09.277Z,100497.63
2022-12-05T09:01:15.059Z,100499.56
2022-12-05T09:06:14.788Z,100500.00
2022-12-05T09:11:17.573Z,100501.13
2022-12-05T09:16:19.991Z,100504.66
2022-12-05T09:21:22.914Z,100509.09
2022-12-05T09:26:22.871Z,100508.91
2022-12-05T09:31:22.049Z,100507.25
2022-12-05T09:36:19.860Z,100512.69
2022-12-05T09:42:02.986Z,100524.34
2022-12-05T09:47:05.496Z,100520.88
2022-12-05T09:52:03.342Z,100517.63
2022-12-05T09:57:00.686Z,100512.56
2022-12-05T10:02:16.561Z,100508.44
2022-12-05T10:07:25.299Z,100512.09
2022-12-05T10:12:27.682Z,100514.88
2022-12-05T10:17:30.704Z,100511.50
2022-12-05T10:22:45.087Z,100512.47
2022-12-05T10:27:50.564Z,100513.38
2022-12-05T10:32:57.594Z,100504.66
2022-12-05T10:37:59.765Z,100512.41
2022-12-05T10:42:56.192Z,100507.88
2022-12-05T10:47:57.357Z,100504.47
2022-12-05T10:52:55.769Z,100501.94
2022-12-05T10:58:11.436Z,100502.00
2022-12-05T11:03:31.844Z,100496.63
2022-12-05T11:09:02.672Z,100502.00
2022-12-05T11:13:57.396Z,100499.56
2022-12-05T11:18:54.027Z,100497.19
2022-12-05T11:23:50.584Z,100486.94
2022-12-05T11:28:47.126Z,100485.25
2022-12-05T11:34:02.228Z,100485.00
2022-12-05T11:38:58.808Z,100495.03
2022-12-05T11:44:06.989Z,100490.56
2022-12-05T11:49:20.128Z,100480.91
2022-12-05T11:54:41.797Z,100482.69
2022-12-05T12:00:03.404Z,100475.13
2022-12-05T12:05:24.446Z,100483.16
2022-12-05T12:10:38.334Z,100472.16
2022-12-05T12:15:48.832Z,100469.44
2022-12-05T12:21:30.771Z,100469.81
2022-12-05T12:26:47.066Z,100480.66
2022-12-05T12:31:49.330Z,100467.72
2022-12-05T12:36:52.141Z,100471.66
2022-12-05T12:42:09.928Z,100465.75
2022-12-05T12:47:40.649Z,100467.34
2022-12-05T12:52:55.724Z,100462.44
2022-12-05T12:58:01.400Z,100466.78
2022-12-05T13:03:11.965Z,100460.63
2022-12-05T13:08:26.257Z,100460.34
2022-12-05T13:13:30.617Z,100463.81
2022-12-05T13:18:27.630Z,100455.03
2022-12-05T13:23:28.375Z,100460.88
2022-12-05T13:28:35.727Z,100456.78
2022-12-05T13:33:50.935Z,100458.19
2022-12-05T13:39:06.012Z,100454.88
2022-12-05T13:44:12.311Z,100469.06
2022-12-05T13:49:30.033Z,100479.47
2022-12-05T13:54:28.238Z,100474.97
2022-12-05T14:00:04.803Z,100477.75
2022-12-05T14:05:02.387Z,100473.19
2022-12-05T14:09:58.944Z,100471.75
2022-12-05T14:14:55.384Z,100470.56
2022-12-05T14:20:05.120Z,100483.25
2022-12-05T14:25:13.841Z,100477.16
2022-12-05T14:30:23.380Z,100474.78
2022-12-05T14:35:28.667Z,100475.97
2022-12-05T14:40:39.181Z,100482.72
2022-12-05T14:45:55.806Z,100478.56
2022-12-05T14:50:54.963Z,100486.69
2022-12-05T14:56:03.418Z,100481.53
2022-12-05T15:01:03.176Z,100488.38
2022-12-05T15:06:04.064Z,100493.53
2022-12-05T15:11:01.161Z,100493.47
2022-12-05T15:16:15.467Z,100492.59
2022-12-05T15:21:33.420Z,100491.94
2022-12-05T15:26:46.968Z,100506.13
2022-12-05T15:31:45.929Z,100519.31
2022-12-05T15:36:51.052Z,100514.91
2022-12-05T15:41:47.443Z,100528.19
2022-12-05T15:46:43.915Z,100526.56
2022-12-05T15:51:40.497Z,100529.06
2022-12-05T15:56:50.285Z,100532.41
2022-12-05T16:01:52.422Z,100532.91
2022-12-05T16:06:52.607Z,100536.41
2022-12-05T16:11:58.900Z,100533.88
2022-12-05T16:17:02.707Z,100537.84
2022-12-05T16:22:14.661Z,100541.31
2022-12-05T16:27:32.990Z,100533.97
2022-12-05T16:32:29.342Z,100533.75
2022-12-05T16:37:27.898Z,100534.50
2022-12-05T16:42:26.028Z,100539.13
2022-12-05T16:47:24.749Z,100539.44
2022-12-05T16:52:21.640Z,100536.03
2022-12-05T16:57:18.137Z,100533.63
2022-12-05T17:02:17.220Z,100534.63
2022-12-05T17:07:13.660Z,100534.41
2022-12-05T17:12:23.780Z,100534.16
2022-12-05T17:17:20.105Z,100529.41
2022-12-05T17:22:16.747Z,100538.97
2022-12-05T17:27:14.365Z,100533.56
2022-12-05T17:32:11.540Z,100538.34
2022-12-05T17:37:07.896Z,100535.63
2022-12-05T17:42:04.721Z,100542.34
2022-12-05T17:47:07.508Z,100538.50
2022-12-05T17:52:21.881Z,100538.81
2022-12-05T17:57:18.894Z,100541.81
2022-12-05T18:02:17.337Z,100554.25
2022-12-05T18:07:13.785Z,100550.81
2022-12-05T18:12:10.181Z,100571.78
2022-12-05T18:17:06.725Z,100560.59
2022-12-05T18:22:03.024Z,100560.59
2022-12-05T18:26:59.480Z,100552.63
2022-12-05T18:31:55.873Z,100558.81
2022-12-05T18:36:52.292Z,100564.19
2022-12-05T18:41:48.650Z,100558.19
2022-12-05T18:46:44.945Z,100566.91
2022-12-05T18:51:41.817Z,100581.53
2022-12-05T18:56:39.987Z,100581.34
2022-12-05T19:01:39.219Z,100585.31
2022-12-05T19:06:36.708Z,100580.94
2022-12-05T19:11:33.791Z,100580.00
2022-12-05T19:16:32.185Z,100591.88
2022-12-05T19:21:30.481Z,100599.13
2022-12-05T19:26:27.653Z,100594.00
2022-12-05T19:31:26.460Z,100594.72
2022-12-05T19:36:24.197Z,100599.56
2022-12-05T19:41:23.545Z,100606.88
2022-12-05T19:46:25.320Z,100610.22
2022-12-05T19:51:21.722Z,100609.47
2022-12-05T19:56:21.118Z,100608.38
2022-12-05T20:01:27.967Z,100601.53
2022-12-05T20:06:25.311Z,100602.97
2022-12-05T20:11:24.866Z,100606.66
2022-12-05T20:16:23.439Z,100600.25
2022-12-05T20:21:22.079Z,100592.69
2022-12-05T20:26:22.271Z,100595.19
2022-12-05T20:31:21.334Z,100601.34
2022-12-05T20:36:20.589Z,100605.63
2022-12-05T20:41:18.529Z,100602.84
2022-12-05T20:46:17.891Z,100600.81
2022-12-05T20:51:25.912Z,100614.31
2022-12-05T20:56:28.294Z,100611.06
2022-12-05T21:01:26.118Z,100613.19
2022-12-05T21:06:25.207Z,100611.28
2022-12-05T21:11:23.143Z,100613.31
2022-12-05T21:16:21.457Z,100605.41
2022-12-05T21:21:23.652Z,100601.53
2022-12-05T21:26:21.924Z,100585.47
2022-12-05T21:31:21.956Z,100589.94
2022-12-05T21:36:18.641Z,100582.03
2022-12-05T21:41:15.324Z,100581.34
2022-12-05T21:46:12.005Z,100582.34
2022-12-05T21:51:09.631Z,100584.13
2022-12-05T21:56:10.729Z,100584.13
2022-12-05T22:01:07.101Z,100585.97
2022-12-05T22:06:09.070Z,100587.78
2022-12-05T22:11:06.903Z,100591.22
2022-12-05T22:16:04.163Z,100596.59
2022-12-05T22:21:07.197Z,100602.78
2022-12-05T22:26:24.220Z,100600.22
2022-12-05T22:31:21.595Z,100592.41
2022-12-05T22:36:19.572Z,100592.31
2022-12-05T22:41:21.538Z,100591.34
2022-12-05T22:46:19.905Z,100590.50
2022-12-05T22:51:17.924Z,100586.75
2022-12-05T22:56:16.356Z,100589.72
2022-12-05T23:01:21.234Z,100580.59
2022-12-05T23:06:18.016Z,100580.59
2022-12-05T23:11:16.244Z,100576.09
2022-12-05T23:16:15.196Z,100568.28
2022-12-05T23:21:19.781Z,100572.81
2022-12-05T23:26:17.949Z,100566.06
2022-12-05T23:31:14.935Z,100573.09
2022-12-05T23:36:12.371Z,100576.53
2022-12-05T23:41:18.471Z,100571.88
2022-12-05T23:46:16.856Z,100575.28
2022-12-05T23:51:24.161Z,100575.56
2022-12-05T23:56:23.575Z,100574.81
